sensor_id;sensor_type;location;lat;lon;timestamp;temperature;humidity
16172;DHT22;8192;53.596;10.166;2023-07-30T00:00:36;16.00;99.90
16172;DHT22;8192;53.596;10.166;2023-07-30T00:03:03;15.90;99.90
16172;DHT22;8192;53.596;10.166;2023-07-30T00:05:30;15.90;99.90
16172;DHT22;8192;53.596;10.166;2023-07-30T00:07:57;15.80;99.90
16172;DHT22;8192;53.596;10.166;2023-07-30T00:10:24;15.90;99.90
16172;DHT22;8192;53.596;10.166;2023-07-30T00:12:52;15.80;99.90
16172;DHT22;8192;53.596;10.166;2023-07-30T00:15:21;15.80;99.90
16172;DHT22;8192;53.596;10.166;2023-07-30T00:17:47;15.80;99.90
16172;DHT22;8192;53.596;10.166;2023-07-30T00:20:15;15.90;99.90
16172;DHT22;8192;53.596;10.166;2023-07-30T00:22:42;16.00;99.90
16172;DHT22;8192;53.596;10.166;2023-07-30T00:25:09;16.00;99.90
16172;DHT22;8192;53.596;10.166;2023-07-30T00:27:36;16.00;99.90
16172;DHT22;8192;53.596;10.166;2023-07-30T00:30:03;15.90;99.90
16172;DHT22;8192;53.596;10.166;2023-07-30T00:32:32;15.90;99.90
16172;DHT22;8192;53.596;10.166;2023-07-30T00:34:59;16.00;99.90
16172;DHT22;8192;53.596;10.166;2023-07-30T00:37:25;16.10;99.90
16172;DHT22;8192;53.596;10.166;2023-07-30T00:39:53;16.20;99.90
16172;DHT22;8192;53.596;10.166;2023-07-30T00:42:19;16.20;99.90
16172;DHT22;8192;53.596;10.166;2023-07-30T00:44:46;16.10;99.90
16172;DHT22;8192;53.596;10.166;2023-07-30T00:47:13;16.10;99.90
16172;DHT22;8192;53.596;10.166;2023-07-30T00:49:41;16.10;99.90
16172;DHT22;8192;53.596;10.166;2023-07-30T00:52:08;16.00;99.90
16172;DHT22;8192;53.596;10.166;2023-07-30T00:54:35;16.10;99.90
16172;DHT22;8192;53.596;10.166;2023-07-30T00:57:03;16.10;99.90
16172;DHT22;8192;53.596;10.166;2023-07-30T00:59:32;16.00;99.90
16172;DHT22;8192;53.596;10.166;2023-07-30T01:01:59;16.10;99.90
16172;DHT22;8192;53.596;10.166;2023-07-30T01:04:28;16.00;99.90
16172;DHT22;8192;53.596;10.166;2023-07-30T01:06:58;16.00;99.90
16172;DHT22;8192;53.596;10.166;2023-07-30T01:09:25;15.90;99.90
16172;DHT22;8192;53.596;10.166;2023-07-30T01:11:53;15.80;99.90
16172;DHT22;8192;53.596;10.166;2023-07-30T01:14:22;15.90;99.90
16172;DHT22;8192;53.596;10.166;2023-07-30T01:16:51;15.80;99.90
16172;DHT22;8192;53.596;10.166;2023-07-30T01:19:18;15.80;99.90
16172;DHT22;8192;53.596;10.166;2023-07-30T01:21:47;15.70;99.90
16172;DHT22;8192;53.596;10.166;2023-07-30T01:24:14;15.70;99.90
16172;DHT22;8192;53.596;10.166;2023-07-30T01:26:44;15.70;99.90
16172;DHT22;8192;53.596;10.166;2023-07-30T01:29:22;15.60;99.90
16172;DHT22;8192;53.596;10.166;2023-07-30T01:31:53;15.60;99.90
16172;DHT22;8192;53.596;10.166;2023-07-30T01:34:22;15.70;99.90
16172;DHT22;8192;53.596;10.166;2023-07-30T01:36:52;15.60;99.90
16172;DHT22;8192;53.596;10.166;2023-07-30T01:39:20;15.40;99.90
16172;DHT22;8192;53.596;10.166;2023-07-30T01:41:47;15.20;99.90
16172;DHT22;8192;53.596;10.166;2023-07-30T01:44:14;15.20;99.90
16172;DHT22;8192;53.596;10.166;2023-07-30T01:46:41;15.20;99.90
16172;DHT22;8192;53.596;10.166;2023-07-30T01:49:08;15.10;99.90
16172;DHT22;8192;53.596;10.166;2023-07-30T01:51:35;15.00;99.90
16172;DHT22;8192;53.596;10.166;2023-07-30T01:54:03;15.00;99.90
16172;DHT22;8192;53.596;10.166;2023-07-30T01:56:30;14.90;99.90
16172;DHT22;8192;53.596;10.166;2023-07-30T01:58:57;14.80;99.90
16172;DHT22;8192;53.596;10.166;2023-07-30T02:01:24;14.80;99.90
16172;DHT22;8192;53.596;10.166;2023-07-30T02:03:51;14.70;99.90
16172;DHT22;8192;53.596;10.166;2023-07-30T02:06:18;14.70;99.90
16172;DHT22;8192;53.596;10.166;2023-07-30T02:08:45;14.70;99.90
16172;DHT22;8192;53.596;10.166;2023-07-30T02:11:13;14.70;99.90
16172;DHT22;8192;53.596;10.166;2023-07-30T02:13:40;14.80;99.90
16172;DHT22;8192;53.596;10.166;2023-07-30T02:16:08;14.90;99.90
16172;DHT22;8192;53.596;10.166;2023-07-30T02:18:34;14.90;99.90
16172;DHT22;8192;53.596;10.166;2023-07-30T02:21:01;14.90;99.90
16172;DHT22;8192;53.596;10.166;2023-07-30T02:23:28;14.90;99.90
16172;DHT22;8192;53.596;10.166;2023-07-30T02:25:55;14.80;99.90
16172;DHT22;8192;53.596;10.166;2023-07-30T02:28:24;14.80;99.90
16172;DHT22;8192;53.596;10.166;2023-07-30T02:30:51;14.70;99.90
16172;DHT22;8192;53.596;10.166;2023-07-30T02:33:18;14.70;99.90
16172;DHT22;8192;53.596;10.166;2023-07-30T02:35:45;14.70;99.90
16172;DHT22;8192;53.596;10.166;2023-07-30T02:38:12;14.60;99.90
16172;DHT22;8192;53.596;10.166;2023-07-30T02:40:39;14.60;99.90
16172;DHT22;8192;53.596;10.166;2023-07-30T02:43:06;14.60;99.90
16172;DHT22;8192;53.596;10.166;2023-07-30T02:45:34;14.60;99.90
16172;DHT22;8192;53.596;10.166;2023-07-30T02:48:01;14.50;99.90
16172;DHT22;8192;53.596;10.166;2023-07-30T02:50:28;14.60;99.90
16172;DHT22;8192;53.596;10.166;2023-07-30T02:52:55;14.50;99.90
16172;DHT22;8192;53.596;10.166;2023-07-30T02:55:22;14.50;99.90
16172;DHT22;8192;53.596;10.166;2023-07-30T02:57:49;14.50;99.90
16172;DHT22;8192;53.596;10.166;2023-07-30T03:00:17;14.50;99.90
16172;DHT22;8192;53.596;10.166;2023-07-30T03:02:46;14.40;99.90
16172;DHT22;8192;53.596;10.166;2023-07-30T03:05:13;14.40;99.90
16172;DHT22;8192;53.596;10.166;2023-07-30T03:07:40;14.30;99.90
16172;DHT22;8192;53.596;10.166;2023-07-30T03:10:07;14.30;99.90
16172;DHT22;8192;53.596;10.166;2023-07-30T03:12:34;14.30;99.90
16172;DHT22;8192;53.596;10.166;2023-07-30T03:15:01;14.40;99.90
16172;DHT22;8192;53.596;10.166;2023-07-30T03:17:28;14.30;99.90
16172;DHT22;8192;53.596;10.166;2023-07-30T03:19:57;14.40;99.90
16172;DHT22;8192;53.596;10.166;2023-07-30T03:22:24;14.40;99.90
16172;DHT22;8192;53.596;10.166;2023-07-30T03:24:51;14.40;99.90
16172;DHT22;8192;53.596;10.166;2023-07-30T03:27:18;14.40;99.90
16172;DHT22;8192;53.596;10.166;2023-07-30T03:29:45;14.40;99.90
16172;DHT22;8192;53.596;10.166;2023-07-30T03:32:12;14.40;99.90
16172;DHT22;8192;53.596;10.166;2023-07-30T03:34:39;14.40;99.90
16172;DHT22;8192;53.596;10.166;2023-07-30T03:37:08;14.30;99.90
16172;DHT22;8192;53.596;10.166;2023-07-30T03:39:35;14.30;99.90
16172;DHT22;8192;53.596;10.166;2023-07-30T03:42:02;14.40;99.90
16172;DHT22;8192;53.596;10.166;2023-07-30T03:44:29;14.40;99.90
16172;DHT22;8192;53.596;10.166;2023-07-30T03:46:56;14.40;99.90
16172;DHT22;8192;53.596;10.166;2023-07-30T03:49:23;14.40;99.90
16172;DHT22;8192;53.596;10.166;2023-07-30T03:51:50;14.40;99.90
16172;DHT22;8192;53.596;10.166;2023-07-30T03:54:19;14.40;99.90
16172;DHT22;8192;53.596;10.166;2023-07-30T03:56:46;14.40;99.90
16172;DHT22;8192;53.596;10.166;2023-07-30T03:59:13;14.60;99.90
16172;DHT22;8192;53.596;10.166;2023-07-30T04:01:40;14.60;99.90
16172;DHT22;8192;53.596;10.166;2023-07-30T04:04:07;14.60;99.90
16172;DHT22;8192;53.596;10.166;2023-07-30T04:06:34;14.70;99.90
16172;DHT22;8192;53.596;10.166;2023-07-30T04:09:01;14.70;99.90
16172;DHT22;8192;53.596;10.166;2023-07-30T04:11:30;14.80;99.90
16172;DHT22;8192;53.596;10.166;2023-07-30T04:13:57;14.90;99.90
16172;DHT22;8192;53.596;10.166;2023-07-30T04:16:24;14.90;99.90
16172;DHT22;8192;53.596;10.166;2023-07-30T04:18:51;15.00;99.90
16172;DHT22;8192;53.596;10.166;2023-07-30T04:21:18;15.00;99.90
16172;DHT22;8192;53.596;10.166;2023-07-30T04:23:45;15.10;99.90
16172;DHT22;8192;53.596;10.166;2023-07-30T04:26:12;15.10;99.90
16172;DHT22;8192;53.596;10.166;2023-07-30T04:28:40;15.20;99.90
16172;DHT22;8192;53.596;10.166;2023-07-30T04:31:07;15.30;99.90
16172;DHT22;8192;53.596;10.166;2023-07-30T04:33:34;15.60;99.90
16172;DHT22;8192;53.596;10.166;2023-07-30T04:36:01;15.80;99.90
16172;DHT22;8192;53.596;10.166;2023-07-30T04:38:29;15.80;99.90
16172;DHT22;8192;53.596;10.166;2023-07-30T04:40:57;15.80;99.90
16172;DHT22;8192;53.596;10.166;2023-07-30T04:43:24;15.80;99.90
16172;DHT22;8192;53.596;10.166;2023-07-30T04:45:53;15.80;99.90
16172;DHT22;8192;53.596;10.166;2023-07-30T04:48:20;16.00;99.90
16172;DHT22;8192;53.596;10.166;2023-07-30T04:50:47;16.10;99.90
16172;DHT22;8192;53.596;10.166;2023-07-30T04:53:14;16.10;99.90
16172;DHT22;8192;53.596;10.166;2023-07-30T04:55:42;16.20;99.90
16172;DHT22;8192;53.596;10.166;2023-07-30T04:58:09;16.30;99.90
16172;DHT22;8192;53.596;10.166;2023-07-30T05:00:36;16.70;99.90
16172;DHT22;8192;53.596;10.166;2023-07-30T05:03:04;17.10;99.90
16172;DHT22;8192;53.596;10.166;2023-07-30T05:05:32;17.20;99.90
16172;DHT22;8192;53.596;10.166;2023-07-30T05:07:59;17.30;99.90
16172;DHT22;8192;53.596;10.166;2023-07-30T05:10:26;17.60;99.90
16172;DHT22;8192;53.596;10.166;2023-07-30T05:12:53;18.00;99.90
16172;DHT22;8192;53.596;10.166;2023-07-30T05:15:19;18.50;99.90
16172;DHT22;8192;53.596;10.166;2023-07-30T05:17:46;18.90;99.90
16172;DHT22;8192;53.596;10.166;2023-07-30T05:20:15;19.20;99.90
16172;DHT22;8192;53.596;10.166;2023-07-30T05:22:42;19.70;99.90
16172;DHT22;8192;53.596;10.166;2023-07-30T05:25:09;20.10;99.90
16172;DHT22;8192;53.596;10.166;2023-07-30T05:27:36;20.10;99.90
16172;DHT22;8192;53.596;10.166;2023-07-30T05:30:04;20.30;99.90
16172;DHT22;8192;53.596;10.166;2023-07-30T05:32:32;20.40;99.90
16172;DHT22;8192;53.596;10.166;2023-07-30T05:34:59;20.50;99.90
16172;DHT22;8192;53.596;10.166;2023-07-30T05:37:27;20.60;99.90
16172;DHT22;8192;53.596;10.166;2023-07-30T05:39:54;20.20;99.90
16172;DHT22;8192;53.596;10.166;2023-07-30T05:42:21;19.70;99.90
16172;DHT22;8192;53.596;10.166;2023-07-30T05:44:48;19.40;99.90
16172;DHT22;8192;53.596;10.166;2023-07-30T05:47:15;19.50;99.90
16172;DHT22;8192;53.596;10.166;2023-07-30T05:49:42;20.10;99.90
16172;DHT22;8192;53.596;10.166;2023-07-30T05:52:09;20.10;99.90
16172;DHT22;8192;53.596;10.166;2023-07-30T05:54:37;19.90;99.90
16172;DHT22;8192;53.596;10.166;2023-07-30T05:57:04;20.00;99.90
16172;DHT22;8192;53.596;10.166;2023-07-30T05:59:31;20.10;99.90
16172;DHT22;8192;53.596;10.166;2023-07-30T06:02:02;20.10;99.90
16172;DHT22;8192;53.596;10.166;2023-07-30T06:04:29;20.20;99.90
16172;DHT22;8192;53.596;10.166;2023-07-30T06:06:58;20.30;99.90
16172;DHT22;8192;53.596;10.166;2023-07-30T06:09:25;20.50;99.90
16172;DHT22;8192;53.596;10.166;2023-07-30T06:11:56;20.70;99.90
16172;DHT22;8192;53.596;10.166;2023-07-30T06:14:23;21.00;99.90
16172;DHT22;8192;53.596;10.166;2023-07-30T06:16:51;21.30;99.90
16172;DHT22;8192;53.596;10.166;2023-07-30T06:19:18;21.70;99.90
16172;DHT22;8192;53.596;10.166;2023-07-30T06:21:45;21.90;99.90
16172;DHT22;8192;53.596;10.166;2023-07-30T06:24:12;22.30;99.90
16172;DHT22;8192;53.596;10.166;2023-07-30T06:26:39;22.30;99.70
16172;DHT22;8192;53.596;10.166;2023-07-30T06:29:09;22.10;99.90
16172;DHT22;8192;53.596;10.166;2023-07-30T06:31:36;22.10;99.00
16172;DHT22;8192;53.596;10.166;2023-07-30T06:34:03;22.50;99.60
16172;DHT22;8192;53.596;10.166;2023-07-30T06:36:30;22.90;97.30
16172;DHT22;8192;53.596;10.166;2023-07-30T06:38:58;23.20;97.60
16172;DHT22;8192;53.596;10.166;2023-07-30T06:41:25;23.00;97.10
16172;DHT22;8192;53.596;10.166;2023-07-30T06:43:51;22.70;98.00
16172;DHT22;8192;53.596;10.166;2023-07-30T06:46:20;22.30;99.60
16172;DHT22;8192;53.596;10.166;2023-07-30T06:48:47;21.90;99.40
16172;DHT22;8192;53.596;10.166;2023-07-30T06:51:14;21.50;99.90
16172;DHT22;8192;53.596;10.166;2023-07-30T06:53:41;21.00;99.90
16172;DHT22;8192;53.596;10.166;2023-07-30T06:56:08;21.20;99.90
16172;DHT22;8192;53.596;10.166;2023-07-30T06:58:35;21.30;99.90
16172;DHT22;8192;53.596;10.166;2023-07-30T07:01:01;21.10;99.90
16172;DHT22;8192;53.596;10.166;2023-07-30T07:03:30;21.30;99.90
16172;DHT22;8192;53.596;10.166;2023-07-30T07:05:57;21.60;99.90
16172;DHT22;8192;53.596;10.166;2023-07-30T07:08:24;22.60;99.90
16172;DHT22;8192;53.596;10.166;2023-07-30T07:10:52;23.10;97.90
16172;DHT22;8192;53.596;10.166;2023-07-30T07:13:19;23.20;98.10
16172;DHT22;8192;53.596;10.166;2023-07-30T07:15:46;23.10;96.40
16172;DHT22;8192;53.596;10.166;2023-07-30T07:18:14;23.40;98.60
16172;DHT22;8192;53.596;10.166;2023-07-30T07:20:42;23.00;96.60
16172;DHT22;8192;53.596;10.166;2023-07-30T07:23:09;22.60;97.60
16172;DHT22;8192;53.596;10.166;2023-07-30T07:25:36;21.80;98.30
16172;DHT22;8192;53.596;10.166;2023-07-30T07:28:04;21.20;99.90
16172;DHT22;8192;53.596;10.166;2023-07-30T07:30:35;20.90;99.90
16172;DHT22;8192;53.596;10.166;2023-07-30T07:33:03;21.20;99.90
16172;DHT22;8192;53.596;10.166;2023-07-30T07:35:31;21.20;99.90
16172;DHT22;8192;53.596;10.166;2023-07-30T07:38:00;21.00;99.90
16172;DHT22;8192;53.596;10.166;2023-07-30T07:40:27;20.50;99.90
16172;DHT22;8192;53.596;10.166;2023-07-30T07:42:55;20.30;99.90
16172;DHT22;8192;53.596;10.166;2023-07-30T07:45:22;20.30;99.90
16172;DHT22;8192;53.596;10.166;2023-07-30T07:47:49;20.30;99.90
16172;DHT22;8192;53.596;10.166;2023-07-30T07:50:16;20.40;99.90
16172;DHT22;8192;53.596;10.166;2023-07-30T07:52:43;20.50;99.90
16172;DHT22;8192;53.596;10.166;2023-07-30T07:55:16;20.90;99.90
16172;DHT22;8192;53.596;10.166;2023-07-30T07:57:44;21.40;99.90
16172;DHT22;8192;53.596;10.166;2023-07-30T08:00:11;22.10;99.90
16172;DHT22;8192;53.596;10.166;2023-07-30T08:02:38;22.80;98.50
16172;DHT22;8192;53.596;10.166;2023-07-30T08:05:13;22.80;98.40
16172;DHT22;8192;53.596;10.166;2023-07-30T08:07:40;22.70;95.80
16172;DHT22;8192;53.596;10.166;2023-07-30T08:10:08;23.10;96.40
16172;DHT22;8192;53.596;10.166;2023-07-30T08:12:38;23.80;95.90
16172;DHT22;8192;53.596;10.166;2023-07-30T08:15:05;23.70;95.70
16172;DHT22;8192;53.596;10.166;2023-07-30T08:17:32;23.70;95.50
16172;DHT22;8192;53.596;10.166;2023-07-30T08:19:59;23.20;95.40
16172;DHT22;8192;53.596;10.166;2023-07-30T08:22:26;22.50;96.50
16172;DHT22;8192;53.596;10.166;2023-07-30T08:24:54;22.20;96.90
16172;DHT22;8192;53.596;10.166;2023-07-30T08:27:21;21.80;99.90
16172;DHT22;8192;53.596;10.166;2023-07-30T08:29:50;21.90;99.90
16172;DHT22;8192;53.596;10.166;2023-07-30T08:32:17;22.10;99.90
16172;DHT22;8192;53.596;10.166;2023-07-30T08:34:43;22.20;99.90
16172;DHT22;8192;53.596;10.166;2023-07-30T08:37:11;22.00;98.20
16172;DHT22;8192;53.596;10.166;2023-07-30T08:39:38;22.00;99.40
16172;DHT22;8192;53.596;10.166;2023-07-30T08:42:05;22.10;98.90
16172;DHT22;8192;53.596;10.166;2023-07-30T08:44:32;22.20;99.10
16172;DHT22;8192;53.596;10.166;2023-07-30T08:47:00;21.70;99.00
16172;DHT22;8192;53.596;10.166;2023-07-30T08:49:27;21.60;99.90
16172;DHT22;8192;53.596;10.166;2023-07-30T08:51:59;21.50;99.80
16172;DHT22;8192;53.596;10.166;2023-07-30T08:54:30;21.70;99.90
16172;DHT22;8192;53.596;10.166;2023-07-30T08:56:58;21.70;99.70
16172;DHT22;8192;53.596;10.166;2023-07-30T08:59:27;21.70;98.80
16172;DHT22;8192;53.596;10.166;2023-07-30T09:01:57;21.60;98.90
16172;DHT22;8192;53.596;10.166;2023-07-30T09:04:29;21.80;99.20
16172;DHT22;8192;53.596;10.166;2023-07-30T09:06:56;21.60;98.40
16172;DHT22;8192;53.596;10.166;2023-07-30T09:09:24;21.60;97.40
16172;DHT22;8192;53.596;10.166;2023-07-30T09:11:51;21.50;98.00
16172;DHT22;8192;53.596;10.166;2023-07-30T09:14:19;21.40;97.90
16172;DHT22;8192;53.596;10.166;2023-07-30T09:16:47;21.20;99.70
16172;DHT22;8192;53.596;10.166;2023-07-30T09:19:16;21.20;98.80
16172;DHT22;8192;53.596;10.166;2023-07-30T09:21:45;21.30;99.10
16172;DHT22;8192;53.596;10.166;2023-07-30T09:24:14;21.30;98.00
16172;DHT22;8192;53.596;10.166;2023-07-30T09:26:47;21.30;97.70
16172;DHT22;8192;53.596;10.166;2023-07-30T09:29:14;21.60;99.60
16172;DHT22;8192;53.596;10.166;2023-07-30T09:31:46;22.10;96.90
16172;DHT22;8192;53.596;10.166;2023-07-30T09:34:18;22.60;96.30
16172;DHT22;8192;53.596;10.166;2023-07-30T09:36:47;22.60;94.80
16172;DHT22;8192;53.596;10.166;2023-07-30T09:39:16;22.50;94.50
16172;DHT22;8192;53.596;10.166;2023-07-30T09:41:44;22.40;95.60
16172;DHT22;8192;53.596;10.166;2023-07-30T09:44:11;22.60;96.40
16172;DHT22;8192;53.596;10.166;2023-07-30T09:46:42;22.90;96.50
16172;DHT22;8192;53.596;10.166;2023-07-30T09:49:10;23.00;93.10
16172;DHT22;8192;53.596;10.166;2023-07-30T09:51:37;23.00;94.30
16172;DHT22;8192;53.596;10.166;2023-07-30T09:54:06;22.80;93.20
16172;DHT22;8192;53.596;10.166;2023-07-30T09:56:33;22.60;94.30
16172;DHT22;8192;53.596;10.166;2023-07-30T09:59:00;22.40;94.40
16172;DHT22;8192;53.596;10.166;2023-07-30T10:01:28;22.50;94.10
16172;DHT22;8192;53.596;10.166;2023-07-30T10:03:57;22.50;94.50
16172;DHT22;8192;53.596;10.166;2023-07-30T10:06:27;22.90;94.10
16172;DHT22;8192;53.596;10.166;2023-07-30T10:08:58;23.50;94.90
16172;DHT22;8192;53.596;10.166;2023-07-30T10:11:28;23.50;92.10
16172;DHT22;8192;53.596;10.166;2023-07-30T10:13:56;23.30;92.30
16172;DHT22;8192;53.596;10.166;2023-07-30T10:16:25;23.10;92.90
16172;DHT22;8192;53.596;10.166;2023-07-30T10:18:56;23.00;93.20
16172;DHT22;8192;53.596;10.166;2023-07-30T10:21:32;23.00;91.90
16172;DHT22;8192;53.596;10.166;2023-07-30T10:24:01;23.00;93.00
16172;DHT22;8192;53.596;10.166;2023-07-30T10:26:31;22.60;93.40
16172;DHT22;8192;53.596;10.166;2023-07-30T10:29:15;22.30;94.20
16172;DHT22;8192;53.596;10.166;2023-07-30T10:31:44;22.00;94.50
16172;DHT22;8192;53.596;10.166;2023-07-30T10:34:14;22.10;93.90
16172;DHT22;8192;53.596;10.166;2023-07-30T10:36:43;22.10;94.90
16172;DHT22;8192;53.596;10.166;2023-07-30T10:39:11;22.00;94.30
16172;DHT22;8192;53.596;10.166;2023-07-30T10:41:40;22.20;94.80
16172;DHT22;8192;53.596;10.166;2023-07-30T10:44:07;22.70;94.40
16172;DHT22;8192;53.596;10.166;2023-07-30T10:46:34;23.00;93.10
16172;DHT22;8192;53.596;10.166;2023-07-30T10:49:03;23.10;92.10
16172;DHT22;8192;53.596;10.166;2023-07-30T10:51:33;23.10;91.60
16172;DHT22;8192;53.596;10.166;2023-07-30T10:54:00;22.70;92.30
16172;DHT22;8192;53.596;10.166;2023-07-30T10:56:27;22.60;91.60
16172;DHT22;8192;53.596;10.166;2023-07-30T10:58:55;22.10;90.90
16172;DHT22;8192;53.596;10.166;2023-07-30T11:01:24;22.00;91.30
16172;DHT22;8192;53.596;10.166;2023-07-30T11:03:52;22.00;91.10
16172;DHT22;8192;53.596;10.166;2023-07-30T11:06:24;21.90;90.60
16172;DHT22;8192;53.596;10.166;2023-07-30T11:08:52;21.90;90.60
16172;DHT22;8192;53.596;10.166;2023-07-30T11:11:19;21.80;90.40
16172;DHT22;8192;53.596;10.166;2023-07-30T11:13:47;22.00;91.60
16172;DHT22;8192;53.596;10.166;2023-07-30T11:16:16;22.30;90.50
16172;DHT22;8192;53.596;10.166;2023-07-30T11:18:44;22.40;90.90
16172;DHT22;8192;53.596;10.166;2023-07-30T11:21:13;22.60;91.20
16172;DHT22;8192;53.596;10.166;2023-07-30T11:23:42;22.90;90.50
16172;DHT22;8192;53.596;10.166;2023-07-30T11:26:14;22.60;88.00
16172;DHT22;8192;53.596;10.166;2023-07-30T11:28:41;22.90;88.30
16172;DHT22;8192;53.596;10.166;2023-07-30T11:31:10;23.10;87.80
16172;DHT22;8192;53.596;10.166;2023-07-30T11:33:40;23.20;88.60
16172;DHT22;8192;53.596;10.166;2023-07-30T11:36:09;23.30;87.10
16172;DHT22;8192;53.596;10.166;2023-07-30T11:38:37;23.70;87.30
16172;DHT22;8192;53.596;10.166;2023-07-30T11:41:05;23.90;87.30
16172;DHT22;8192;53.596;10.166;2023-07-30T11:43:39;23.90;80.50
16172;DHT22;8192;53.596;10.166;2023-07-30T11:46:11;23.80;80.90
16172;DHT22;8192;53.596;10.166;2023-07-30T11:48:43;23.40;81.30
16172;DHT22;8192;53.596;10.166;2023-07-30T11:51:21;23.30;83.40
16172;DHT22;8192;53.596;10.166;2023-07-30T11:53:50;23.40;83.10
16172;DHT22;8192;53.596;10.166;2023-07-30T11:56:19;23.00;83.10
16172;DHT22;8192;53.596;10.166;2023-07-30T11:58:47;22.80;84.40
16172;DHT22;8192;53.596;10.166;2023-07-30T12:01:15;22.40;80.70
16172;DHT22;8192;53.596;10.166;2023-07-30T12:03:43;22.40;87.90
16172;DHT22;8192;53.596;10.166;2023-07-30T12:06:11;22.30;81.80
16172;DHT22;8192;53.596;10.166;2023-07-30T12:08:38;22.50;83.00
16172;DHT22;8192;53.596;10.166;2023-07-30T12:11:06;22.60;84.30
16172;DHT22;8192;53.596;10.166;2023-07-30T12:13:42;23.10;82.70
16172;DHT22;8192;53.596;10.166;2023-07-30T12:16:11;23.50;82.20
16172;DHT22;8192;53.596;10.166;2023-07-30T12:18:38;23.70;84.20
16172;DHT22;8192;53.596;10.166;2023-07-30T12:21:07;23.90;79.10
16172;DHT22;8192;53.596;10.166;2023-07-30T12:23:36;23.70;79.20
16172;DHT22;8192;53.596;10.166;2023-07-30T12:26:03;23.60;75.20
16172;DHT22;8192;53.596;10.166;2023-07-30T12:28:31;23.40;79.50
16172;DHT22;8192;53.596;10.166;2023-07-30T12:30:58;23.30;78.10
16172;DHT22;8192;53.596;10.166;2023-07-30T12:33:25;23.00;76.70
16172;DHT22;8192;53.596;10.166;2023-07-30T12:35:52;22.90;80.20
16172;DHT22;8192;53.596;10.166;2023-07-30T12:38:20;23.00;80.10
16172;DHT22;8192;53.596;10.166;2023-07-30T12:40:47;23.00;76.80
16172;DHT22;8192;53.596;10.166;2023-07-30T12:43:15;23.30;80.80
16172;DHT22;8192;53.596;10.166;2023-07-30T12:45:42;23.60;78.50
16172;DHT22;8192;53.596;10.166;2023-07-30T12:48:09;23.70;79.10
16172;DHT22;8192;53.596;10.166;2023-07-30T12:50:36;23.90;78.50
16172;DHT22;8192;53.596;10.166;2023-07-30T12:53:03;23.80;77.50
16172;DHT22;8192;53.596;10.166;2023-07-30T12:55:33;24.00;78.20
16172;DHT22;8192;53.596;10.166;2023-07-30T12:57:59;23.90;75.40
16172;DHT22;8192;53.596;10.166;2023-07-30T13:00:26;23.70;76.90
16172;DHT22;8192;53.596;10.166;2023-07-30T13:02:54;23.60;74.20
16172;DHT22;8192;53.596;10.166;2023-07-30T13:05:22;23.50;78.60
16172;DHT22;8192;53.596;10.166;2023-07-30T13:07:49;23.50;74.30
16172;DHT22;8192;53.596;10.166;2023-07-30T13:10:16;23.50;75.20
16172;DHT22;8192;53.596;10.166;2023-07-30T13:12:45;23.50;75.20
16172;DHT22;8192;53.596;10.166;2023-07-30T13:15:12;23.40;76.90
16172;DHT22;8192;53.596;10.166;2023-07-30T13:17:39;23.20;76.10
16172;DHT22;8192;53.596;10.166;2023-07-30T13:20:07;22.70;72.60
16172;DHT22;8192;53.596;10.166;2023-07-30T13:22:35;22.40;74.50
16172;DHT22;8192;53.596;10.166;2023-07-30T13:25:02;21.90;76.70
16172;DHT22;8192;53.596;10.166;2023-07-30T13:27:30;20.70;88.30
16172;DHT22;8192;53.596;10.166;2023-07-30T13:29:59;19.30;95.50
16172;DHT22;8192;53.596;10.166;2023-07-30T13:32:26;18.00;99.30
16172;DHT22;8192;53.596;10.166;2023-07-30T13:34:52;17.30;99.90
16172;DHT22;8192;53.596;10.166;2023-07-30T13:37:19;16.70;99.90
16172;DHT22;8192;53.596;10.166;2023-07-30T13:39:46;16.10;99.90
16172;DHT22;8192;53.596;10.166;2023-07-30T13:42:13;15.70;99.90
16172;DHT22;8192;53.596;10.166;2023-07-30T13:44:40;15.60;99.90
16172;DHT22;8192;53.596;10.166;2023-07-30T13:47:09;15.60;99.90
16172;DHT22;8192;53.596;10.166;2023-07-30T13:49:36;15.50;99.90
16172;DHT22;8192;53.596;10.166;2023-07-30T13:52:03;15.40;99.90
16172;DHT22;8192;53.596;10.166;2023-07-30T13:54:30;15.30;99.90
16172;DHT22;8192;53.596;10.166;2023-07-30T13:56:57;15.40;99.90
16172;DHT22;8192;53.596;10.166;2023-07-30T13:59:24;15.40;99.90
16172;DHT22;8192;53.596;10.166;2023-07-30T14:01:51;15.40;99.90
16172;DHT22;8192;53.596;10.166;2023-07-30T14:04:19;15.60;99.90
16172;DHT22;8192;53.596;10.166;2023-07-30T14:06:46;15.60;99.90
16172;DHT22;8192;53.596;10.166;2023-07-30T14:09:13;15.70;99.90
16172;DHT22;8192;53.596;10.166;2023-07-30T14:11:40;15.90;99.90
16172;DHT22;8192;53.596;10.166;2023-07-30T14:14:11;15.90;99.90
16172;DHT22;8192;53.596;10.166;2023-07-30T14:16:38;16.00;99.90
16172;DHT22;8192;53.596;10.166;2023-07-30T14:19:05;16.10;99.90
16172;DHT22;8192;53.596;10.166;2023-07-30T14:21:33;16.60;99.90
16172;DHT22;8192;53.596;10.166;2023-07-30T14:24:00;17.10;99.90
16172;DHT22;8192;53.596;10.166;2023-07-30T14:26:27;17.70;99.90
16172;DHT22;8192;53.596;10.166;2023-07-30T14:28:53;18.10;99.90
16172;DHT22;8192;53.596;10.166;2023-07-30T14:31:21;18.40;99.90
16172;DHT22;8192;53.596;10.166;2023-07-30T14:33:47;18.40;99.90
16172;DHT22;8192;53.596;10.166;2023-07-30T14:36:14;18.50;99.90
16172;DHT22;8192;53.596;10.166;2023-07-30T14:38:43;18.90;99.90
16172;DHT22;8192;53.596;10.166;2023-07-30T14:41:10;19.50;99.90
16172;DHT22;8192;53.596;10.166;2023-07-30T14:43:37;20.20;99.90
16172;DHT22;8192;53.596;10.166;2023-07-30T14:46:04;20.50;96.70
16172;DHT22;8192;53.596;10.166;2023-07-30T14:48:32;20.50;98.30
16172;DHT22;8192;53.596;10.166;2023-07-30T14:50:59;21.10;96.70
16172;DHT22;8192;53.596;10.166;2023-07-30T14:53:26;21.30;93.70
16172;DHT22;8192;53.596;10.166;2023-07-30T14:55:54;21.30;93.70
16172;DHT22;8192;53.596;10.166;2023-07-30T14:58:21;21.10;93.20
16172;DHT22;8192;53.596;10.166;2023-07-30T15:00:48;20.90;92.80
16172;DHT22;8192;53.596;10.166;2023-07-30T15:03:15;21.10;95.10
16172;DHT22;8192;53.596;10.166;2023-07-30T15:05:42;21.40;94.10
16172;DHT22;8192;53.596;10.166;2023-07-30T15:08:09;21.30;93.40
16172;DHT22;8192;53.596;10.166;2023-07-30T15:10:36;21.50;94.30
16172;DHT22;8192;53.596;10.166;2023-07-30T15:13:04;21.60;92.30
16172;DHT22;8192;53.596;10.166;2023-07-30T15:15:31;21.50;90.70
16172;DHT22;8192;53.596;10.166;2023-07-30T15:17:58;21.40;91.30
16172;DHT22;8192;53.596;10.166;2023-07-30T15:20:25;21.30;90.80
16172;DHT22;8192;53.596;10.166;2023-07-30T15:22:53;21.20;91.40
16172;DHT22;8192;53.596;10.166;2023-07-30T15:25:20;21.70;90.80
16172;DHT22;8192;53.596;10.166;2023-07-30T15:27:47;22.10;92.00
16172;DHT22;8192;53.596;10.166;2023-07-30T15:30:16;21.80;90.20
16172;DHT22;8192;53.596;10.166;2023-07-30T15:32:44;21.60;91.00